Terminal Aerodrome Forecast
Issued by NWS Jacksonville, FL

Home | Current Version | Previous Version | Text Only | Print | Product List | Glossary On
Versions: 1 2 3 4 5 6 7 8 9 10 11 12 13 14 15 16 17 18 19 20 21 22 23 24 25 26 27 28 29 30 31 32 33 34 35 36 37
000
FTUS42 KJAX 250100 AAA
TAFGNV
TAF AMD
KGNV 250108Z 2501/2524 24010G18KT P6SM VCSH SCT015 OVC035
      TEMPO 2501/2503 BKN010
     FM250600 29010G18KT P6SM SCT015 OVC040
      TEMPO 2506/2508 BKN025
     FM251300 32010KT P6SM BKN080
     FM251900 35005KT P6SM FEW030 SCT150=

USA.gov is the U.S. government's official web portal to all federal, state and local government web resources and services.